sensor_id;sensor_type;location;lat;lon;timestamp;P1;durP1;ratioP1;P2;durP2;ratioP2
45065;SDS011;30830;53.704;10.004;2023-03-26T00:01:28;9.32;;;2.65;;
45065;SDS011;30830;53.704;10.004;2023-03-26T00:03:57;9.63;;;2.90;;
45065;SDS011;30830;53.704;10.004;2023-03-26T00:06:34;16.58;;;3.47;;
45065;SDS011;30830;53.704;10.004;2023-03-26T00:09:03;11.20;;;2.97;;
45065;SDS011;30830;53.704;10.004;2023-03-26T00:11:30;11.75;;;2.90;;
45065;SDS011;30830;53.704;10.004;2023-03-26T00:13:56;6.93;;;2.55;;
45065;SDS011;30830;53.704;10.004;2023-03-26T00:16:23;7.15;;;3.38;;
45065;SDS011;30830;53.704;10.004;2023-03-26T00:18:54;11.73;;;3.45;;
45065;SDS011;30830;53.704;10.004;2023-03-26T00:21:21;10.25;;;3.30;;
45065;SDS011;30830;53.704;10.004;2023-03-26T00:23:52;11.63;;;2.72;;
45065;SDS011;30830;53.704;10.004;2023-03-26T00:26:23;8.90;;;3.28;;
45065;SDS011;30830;53.704;10.004;2023-03-26T00:28:50;11.13;;;3.28;;
45065;SDS011;30830;53.704;10.004;2023-03-26T00:31:16;14.00;;;3.85;;
45065;SDS011;30830;53.704;10.004;2023-03-26T00:33:42;10.98;;;3.55;;
45065;SDS011;30830;53.704;10.004;2023-03-26T00:36:09;12.07;;;3.55;;
45065;SDS011;30830;53.704;10.004;2023-03-26T00:38:38;12.15;;;4.28;;
45065;SDS011;30830;53.704;10.004;2023-03-26T00:41:05;15.35;;;3.30;;
45065;SDS011;30830;53.704;10.004;2023-03-26T00:43:41;13.55;;;4.13;;
45065;SDS011;30830;53.704;10.004;2023-03-26T00:46:10;16.08;;;4.47;;
45065;SDS011;30830;53.704;10.004;2023-03-26T00:48:36;12.10;;;3.95;;
45065;SDS011;30830;53.704;10.004;2023-03-26T00:51:03;8.52;;;3.60;;
45065;SDS011;30830;53.704;10.004;2023-03-26T00:53:29;13.75;;;4.68;;
45065;SDS011;30830;53.704;10.004;2023-03-26T00:55:56;14.35;;;3.83;;
45065;SDS011;30830;53.704;10.004;2023-03-26T00:58:24;9.38;;;3.78;;
45065;SDS011;30830;53.704;10.004;2023-03-26T01:00:53;8.05;;;3.30;;
45065;SDS011;30830;53.704;10.004;2023-03-26T01:03:23;9.05;;;2.60;;
45065;SDS011;30830;53.704;10.004;2023-03-26T01:05:51;9.88;;;3.22;;
45065;SDS011;30830;53.704;10.004;2023-03-26T01:08:32;8.82;;;2.58;;
45065;SDS011;30830;53.704;10.004;2023-03-26T01:13:49;7.35;;;2.78;;
45065;SDS011;30830;53.704;10.004;2023-03-26T01:16:34;7.72;;;3.13;;
45065;SDS011;30830;53.704;10.004;2023-03-26T01:19:04;7.60;;;3.10;;
45065;SDS011;30830;53.704;10.004;2023-03-26T01:21:34;12.05;;;4.00;;
45065;SDS011;30830;53.704;10.004;2023-03-26T01:24:03;15.68;;;3.45;;
45065;SDS011;30830;53.704;10.004;2023-03-26T01:26:39;7.28;;;2.40;;
45065;SDS011;30830;53.704;10.004;2023-03-26T01:29:18;19.30;;;3.60;;
45065;SDS011;30830;53.704;10.004;2023-03-26T01:34:23;11.43;;;2.10;;
45065;SDS011;30830;53.704;10.004;2023-03-26T01:37:19;7.55;;;2.50;;
45065;SDS011;30830;53.704;10.004;2023-03-26T01:39:50;8.20;;;2.47;;
45065;SDS011;30830;53.704;10.004;2023-03-26T01:42:24;10.30;;;1.80;;
45065;SDS011;30830;53.704;10.004;2023-03-26T01:45:05;9.93;;;2.13;;
45065;SDS011;30830;53.704;10.004;2023-03-26T01:47:35;5.47;;;1.40;;
45065;SDS011;30830;53.704;10.004;2023-03-26T01:50:03;6.68;;;1.42;;
45065;SDS011;30830;53.704;10.004;2023-03-26T01:52:29;8.23;;;2.35;;
45065;SDS011;30830;53.704;10.004;2023-03-26T01:54:55;6.68;;;1.88;;
45065;SDS011;30830;53.704;10.004;2023-03-26T02:02:50;7.95;;;1.70;;
45065;SDS011;30830;53.704;10.004;2023-03-26T02:08:34;3.90;;;1.42;;
45065;SDS011;30830;53.704;10.004;2023-03-26T02:11:14;9.05;;;1.95;;
45065;SDS011;30830;53.704;10.004;2023-03-26T02:13:41;8.07;;;1.83;;
45065;SDS011;30830;53.704;10.004;2023-03-26T02:16:10;7.15;;;1.98;;
45065;SDS011;30830;53.704;10.004;2023-03-26T02:18:41;9.27;;;2.33;;
45065;SDS011;30830;53.704;10.004;2023-03-26T02:23:46;6.18;;;2.17;;
45065;SDS011;30830;53.704;10.004;2023-03-26T02:26:14;13.68;;;2.15;;
45065;SDS011;30830;53.704;10.004;2023-03-26T02:28:42;8.10;;;1.80;;
45065;SDS011;30830;53.704;10.004;2023-03-26T02:31:08;12.05;;;2.25;;
45065;SDS011;30830;53.704;10.004;2023-03-26T02:33:35;7.60;;;2.13;;
45065;SDS011;30830;53.704;10.004;2023-03-26T02:36:01;9.77;;;2.67;;
45065;SDS011;30830;53.704;10.004;2023-03-26T02:38:28;12.90;;;2.60;;
45065;SDS011;30830;53.704;10.004;2023-03-26T02:40:57;5.55;;;1.88;;
45065;SDS011;30830;53.704;10.004;2023-03-26T02:43:23;8.25;;;1.85;;
45065;SDS011;30830;53.704;10.004;2023-03-26T02:45:49;8.20;;;1.83;;
45065;SDS011;30830;53.704;10.004;2023-03-26T02:48:15;9.73;;;2.45;;
45065;SDS011;30830;53.704;10.004;2023-03-26T02:50:41;7.53;;;1.80;;
45065;SDS011;30830;53.704;10.004;2023-03-26T02:53:07;5.78;;;1.60;;
45065;SDS011;30830;53.704;10.004;2023-03-26T02:55:33;5.32;;;1.33;;
45065;SDS011;30830;53.704;10.004;2023-03-26T02:57:59;5.47;;;1.60;;
45065;SDS011;30830;53.704;10.004;2023-03-26T03:00:24;1.38;;;1.15;;
45065;SDS011;30830;53.704;10.004;2023-03-26T03:02:50;4.50;;;1.50;;
45065;SDS011;30830;53.704;10.004;2023-03-26T03:05:17;5.28;;;1.08;;
45065;SDS011;30830;53.704;10.004;2023-03-26T03:07:43;2.92;;;0.88;;
45065;SDS011;30830;53.704;10.004;2023-03-26T03:10:10;1.38;;;0.90;;
45065;SDS011;30830;53.704;10.004;2023-03-26T03:12:37;7.10;;;1.40;;
45065;SDS011;30830;53.704;10.004;2023-03-26T03:15:06;3.85;;;1.58;;
45065;SDS011;30830;53.704;10.004;2023-03-26T03:17:33;4.05;;;1.30;;
45065;SDS011;30830;53.704;10.004;2023-03-26T03:19:58;5.85;;;1.15;;
45065;SDS011;30830;53.704;10.004;2023-03-26T03:22:24;2.28;;;0.88;;
45065;SDS011;30830;53.704;10.004;2023-03-26T03:24:50;2.75;;;1.50;;
45065;SDS011;30830;53.704;10.004;2023-03-26T03:27:21;3.60;;;1.10;;
45065;SDS011;30830;53.704;10.004;2023-03-26T03:29:50;4.18;;;1.38;;
45065;SDS011;30830;53.704;10.004;2023-03-26T03:32:17;6.03;;;1.02;;
45065;SDS011;30830;53.704;10.004;2023-03-26T03:34:43;5.47;;;1.50;;
45065;SDS011;30830;53.704;10.004;2023-03-26T03:37:09;6.10;;;1.30;;
45065;SDS011;30830;53.704;10.004;2023-03-26T03:39:35;5.68;;;1.50;;
45065;SDS011;30830;53.704;10.004;2023-03-26T03:42:01;3.80;;;1.02;;
45065;SDS011;30830;53.704;10.004;2023-03-26T03:44:27;2.25;;;1.25;;
45065;SDS011;30830;53.704;10.004;2023-03-26T03:46:53;7.97;;;1.65;;
45065;SDS011;30830;53.704;10.004;2023-03-26T03:49:20;7.03;;;1.50;;
45065;SDS011;30830;53.704;10.004;2023-03-26T03:51:46;6.13;;;1.45;;
45065;SDS011;30830;53.704;10.004;2023-03-26T03:54:11;7.32;;;1.80;;
45065;SDS011;30830;53.704;10.004;2023-03-26T03:56:37;5.95;;;1.90;;
45065;SDS011;30830;53.704;10.004;2023-03-26T03:59:03;13.55;;;2.25;;
45065;SDS011;30830;53.704;10.004;2023-03-26T04:01:29;6.15;;;1.60;;
45065;SDS011;30830;53.704;10.004;2023-03-26T04:03:56;7.90;;;2.08;;
45065;SDS011;30830;53.704;10.004;2023-03-26T04:06:22;6.07;;;1.88;;
45065;SDS011;30830;53.704;10.004;2023-03-26T04:08:49;6.28;;;1.83;;
45065;SDS011;30830;53.704;10.004;2023-03-26T04:11:15;7.95;;;1.95;;
45065;SDS011;30830;53.704;10.004;2023-03-26T04:13:40;8.23;;;2.10;;
45065;SDS011;30830;53.704;10.004;2023-03-26T04:16:06;6.13;;;2.10;;
45065;SDS011;30830;53.704;10.004;2023-03-26T04:18:32;6.32;;;1.50;;
45065;SDS011;30830;53.704;10.004;2023-03-26T04:20:58;4.88;;;1.58;;
45065;SDS011;30830;53.704;10.004;2023-03-26T04:23:27;9.88;;;1.88;;
45065;SDS011;30830;53.704;10.004;2023-03-26T04:25:53;9.55;;;1.95;;
45065;SDS011;30830;53.704;10.004;2023-03-26T04:28:30;3.55;;;1.63;;
45065;SDS011;30830;53.704;10.004;2023-03-26T04:30:58;7.28;;;2.33;;
45065;SDS011;30830;53.704;10.004;2023-03-26T04:33:26;10.20;;;2.05;;
45065;SDS011;30830;53.704;10.004;2023-03-26T04:35:53;11.10;;;2.42;;
45065;SDS011;30830;53.704;10.004;2023-03-26T04:38:20;9.88;;;2.15;;
45065;SDS011;30830;53.704;10.004;2023-03-26T04:40:46;7.30;;;2.58;;
45065;SDS011;30830;53.704;10.004;2023-03-26T04:43:12;7.20;;;1.52;;
45065;SDS011;30830;53.704;10.004;2023-03-26T04:45:40;3.63;;;1.10;;
45065;SDS011;30830;53.704;10.004;2023-03-26T04:48:07;4.88;;;1.50;;
45065;SDS011;30830;53.704;10.004;2023-03-26T04:50:38;6.45;;;1.40;;
45065;SDS011;30830;53.704;10.004;2023-03-26T04:53:05;5.63;;;1.23;;
45065;SDS011;30830;53.704;10.004;2023-03-26T04:55:37;5.75;;;2.03;;
45065;SDS011;30830;53.704;10.004;2023-03-26T04:58:07;7.50;;;1.60;;
45065;SDS011;30830;53.704;10.004;2023-03-26T05:00:33;7.28;;;1.40;;
45065;SDS011;30830;53.704;10.004;2023-03-26T05:02:59;7.78;;;1.60;;
45065;SDS011;30830;53.704;10.004;2023-03-26T05:05:25;6.70;;;1.17;;
45065;SDS011;30830;53.704;10.004;2023-03-26T05:07:52;6.20;;;1.10;;
45065;SDS011;30830;53.704;10.004;2023-03-26T05:10:18;5.22;;;1.40;;
45065;SDS011;30830;53.704;10.004;2023-03-26T05:12:46;9.98;;;2.00;;
45065;SDS011;30830;53.704;10.004;2023-03-26T05:15:13;5.97;;;1.38;;
45065;SDS011;30830;53.704;10.004;2023-03-26T05:17:39;9.20;;;1.30;;
45065;SDS011;30830;53.704;10.004;2023-03-26T05:20:39;6.18;;;1.55;;
45065;SDS011;30830;53.704;10.004;2023-03-26T05:22:57;5.07;;;1.67;;
45065;SDS011;30830;53.704;10.004;2023-03-26T05:25:23;4.68;;;1.73;;
45065;SDS011;30830;53.704;10.004;2023-03-26T05:27:48;7.00;;;1.10;;
45065;SDS011;30830;53.704;10.004;2023-03-26T05:30:15;5.75;;;1.55;;
45065;SDS011;30830;53.704;10.004;2023-03-26T05:32:42;5.03;;;1.17;;
45065;SDS011;30830;53.704;10.004;2023-03-26T05:35:08;5.32;;;1.25;;
45065;SDS011;30830;53.704;10.004;2023-03-26T05:37:34;6.32;;;1.40;;
45065;SDS011;30830;53.704;10.004;2023-03-26T05:40:01;5.72;;;1.75;;
45065;SDS011;30830;53.704;10.004;2023-03-26T05:42:28;5.53;;;1.27;;
45065;SDS011;30830;53.704;10.004;2023-03-26T05:44:53;8.30;;;1.88;;
45065;SDS011;30830;53.704;10.004;2023-03-26T05:47:19;6.43;;;1.73;;
45065;SDS011;30830;53.704;10.004;2023-03-26T05:49:44;5.15;;;1.50;;
45065;SDS011;30830;53.704;10.004;2023-03-26T05:52:11;3.03;;;1.20;;
45065;SDS011;30830;53.704;10.004;2023-03-26T05:54:39;5.75;;;1.40;;
45065;SDS011;30830;53.704;10.004;2023-03-26T05:57:05;5.18;;;1.70;;
45065;SDS011;30830;53.704;10.004;2023-03-26T05:59:31;12.02;;;2.13;;
45065;SDS011;30830;53.704;10.004;2023-03-26T06:01:56;5.13;;;1.90;;
45065;SDS011;30830;53.704;10.004;2023-03-26T06:04:22;4.35;;;1.50;;
45065;SDS011;30830;53.704;10.004;2023-03-26T06:06:47;6.78;;;1.70;;
45065;SDS011;30830;53.704;10.004;2023-03-26T06:09:13;8.77;;;1.83;;
45065;SDS011;30830;53.704;10.004;2023-03-26T06:11:38;11.35;;;1.63;;
45065;SDS011;30830;53.704;10.004;2023-03-26T06:14:05;9.55;;;2.35;;
45065;SDS011;30830;53.704;10.004;2023-03-26T06:16:31;5.18;;;2.00;;
45065;SDS011;30830;53.704;10.004;2023-03-26T06:18:57;12.23;;;2.80;;
45065;SDS011;30830;53.704;10.004;2023-03-26T06:21:23;6.75;;;1.80;;
45065;SDS011;30830;53.704;10.004;2023-03-26T06:23:50;15.23;;;2.20;;
45065;SDS011;30830;53.704;10.004;2023-03-26T06:26:15;6.57;;;1.45;;
45065;SDS011;30830;53.704;10.004;2023-03-26T06:28:41;8.55;;;2.22;;
45065;SDS011;30830;53.704;10.004;2023-03-26T06:31:07;9.20;;;2.33;;
45065;SDS011;30830;53.704;10.004;2023-03-26T06:33:32;10.43;;;2.55;;
45065;SDS011;30830;53.704;10.004;2023-03-26T06:35:58;11.27;;;2.15;;
45065;SDS011;30830;53.704;10.004;2023-03-26T06:38:24;7.25;;;1.80;;
45065;SDS011;30830;53.704;10.004;2023-03-26T06:40:49;7.53;;;1.67;;
45065;SDS011;30830;53.704;10.004;2023-03-26T06:43:15;5.80;;;1.98;;
45065;SDS011;30830;53.704;10.004;2023-03-26T06:45:41;6.22;;;2.05;;
45065;SDS011;30830;53.704;10.004;2023-03-26T06:48:06;12.50;;;2.45;;
45065;SDS011;30830;53.704;10.004;2023-03-26T06:50:32;9.15;;;1.70;;
45065;SDS011;30830;53.704;10.004;2023-03-26T06:52:58;7.47;;;2.08;;
45065;SDS011;30830;53.704;10.004;2023-03-26T06:55:24;11.48;;;2.47;;
45065;SDS011;30830;53.704;10.004;2023-03-26T06:57:51;10.02;;;2.20;;
45065;SDS011;30830;53.704;10.004;2023-03-26T07:00:18;8.98;;;1.80;;
45065;SDS011;30830;53.704;10.004;2023-03-26T07:02:44;8.82;;;2.15;;
45065;SDS011;30830;53.704;10.004;2023-03-26T07:05:10;10.25;;;2.30;;
45065;SDS011;30830;53.704;10.004;2023-03-26T07:07:37;9.40;;;2.25;;
45065;SDS011;30830;53.704;10.004;2023-03-26T07:10:03;7.20;;;2.05;;
45065;SDS011;30830;53.704;10.004;2023-03-26T07:12:29;11.73;;;2.58;;
45065;SDS011;30830;53.704;10.004;2023-03-26T07:14:54;11.73;;;2.00;;
45065;SDS011;30830;53.704;10.004;2023-03-26T07:17:20;11.25;;;2.08;;
45065;SDS011;30830;53.704;10.004;2023-03-26T07:19:46;8.13;;;2.45;;
45065;SDS011;30830;53.704;10.004;2023-03-26T07:22:18;8.73;;;3.05;;
45065;SDS011;30830;53.704;10.004;2023-03-26T07:24:46;7.60;;;2.67;;
45065;SDS011;30830;53.704;10.004;2023-03-26T07:27:34;8.13;;;2.83;;
45065;SDS011;30830;53.704;10.004;2023-03-26T07:32:51;11.20;;;3.15;;
45065;SDS011;30830;53.704;10.004;2023-03-26T07:35:37;18.35;;;2.75;;
45065;SDS011;30830;53.704;10.004;2023-03-26T07:38:27;13.52;;;2.53;;
45065;SDS011;30830;53.704;10.004;2023-03-26T07:41:15;15.50;;;3.53;;
45065;SDS011;30830;53.704;10.004;2023-03-26T07:46:46;9.93;;;2.47;;
45065;SDS011;30830;53.704;10.004;2023-03-26T07:49:13;11.50;;;3.13;;
45065;SDS011;30830;53.704;10.004;2023-03-26T07:51:39;6.63;;;2.05;;
45065;SDS011;30830;53.704;10.004;2023-03-26T07:54:05;9.98;;;2.28;;
45065;SDS011;30830;53.704;10.004;2023-03-26T08:10:44;13.18;;;3.55;;
45065;SDS011;30830;53.704;10.004;2023-03-26T08:13:34;10.38;;;2.63;;
45065;SDS011;30830;53.704;10.004;2023-03-26T08:16:23;12.65;;;3.33;;
45065;SDS011;30830;53.704;10.004;2023-03-26T08:18:59;14.40;;;3.35;;
45065;SDS011;30830;53.704;10.004;2023-03-26T08:21:34;17.15;;;2.58;;
45065;SDS011;30830;53.704;10.004;2023-03-26T08:24:12;9.10;;;2.05;;
45065;SDS011;30830;53.704;10.004;2023-03-26T08:26:52;17.02;;;3.80;;
45065;SDS011;30830;53.704;10.004;2023-03-26T08:32:08;7.65;;;2.67;;
45065;SDS011;30830;53.704;10.004;2023-03-26T08:34:38;10.45;;;2.03;;
45065;SDS011;30830;53.704;10.004;2023-03-26T08:37:04;13.82;;;3.40;;
45065;SDS011;30830;53.704;10.004;2023-03-26T08:39:30;12.80;;;2.65;;
45065;SDS011;30830;53.704;10.004;2023-03-26T08:42:11;15.38;;;2.72;;
45065;SDS011;30830;53.704;10.004;2023-03-26T09:18:15;8.07;;;2.08;;
45065;SDS011;30830;53.704;10.004;2023-03-26T09:26:58;9.50;;;2.78;;
45065;SDS011;30830;53.704;10.004;2023-03-26T09:29:37;12.98;;;3.35;;
45065;SDS011;30830;53.704;10.004;2023-03-26T09:32:50;10.30;;;2.30;;
45065;SDS011;30830;53.704;10.004;2023-03-26T09:38:55;11.13;;;2.85;;
45065;SDS011;30830;53.704;10.004;2023-03-26T09:52:59;9.20;;;2.47;;
45065;SDS011;30830;53.704;10.004;2023-03-26T10:01:07;6.65;;;2.13;;
45065;SDS011;30830;53.704;10.004;2023-03-26T10:06:47;15.07;;;2.90;;
45065;SDS011;30830;53.704;10.004;2023-03-26T10:12:22;11.48;;;2.25;;
45065;SDS011;30830;53.704;10.004;2023-03-26T10:18:40;9.38;;;2.80;;
45065;SDS011;30830;53.704;10.004;2023-03-26T10:29:00;6.05;;;2.10;;
45065;SDS011;30830;53.704;10.004;2023-03-26T10:31:46;12.50;;;2.67;;
45065;SDS011;30830;53.704;10.004;2023-03-26T10:48:20;12.73;;;2.10;;
45065;SDS011;30830;53.704;10.004;2023-03-26T10:50:51;8.07;;;2.65;;
45065;SDS011;30830;53.704;10.004;2023-03-26T10:53:44;6.53;;;2.33;;
45065;SDS011;30830;53.704;10.004;2023-03-26T10:58:49;7.10;;;2.22;;
45065;SDS011;30830;53.704;10.004;2023-03-26T11:09:29;12.32;;;2.70;;
45065;SDS011;30830;53.704;10.004;2023-03-26T11:28:18;13.40;;;3.10;;
45065;SDS011;30830;53.704;10.004;2023-03-26T11:30:58;11.63;;;2.10;;
45065;SDS011;30830;53.704;10.004;2023-03-26T11:36:06;8.73;;;2.08;;
45065;SDS011;30830;53.704;10.004;2023-03-26T11:41:03;10.63;;;2.08;;
45065;SDS011;30830;53.704;10.004;2023-03-26T11:43:46;11.20;;;2.42;;
45065;SDS011;30830;53.704;10.004;2023-03-26T11:46:20;10.80;;;2.38;;
45065;SDS011;30830;53.704;10.004;2023-03-26T11:48:49;8.85;;;2.95;;
45065;SDS011;30830;53.704;10.004;2023-03-26T11:51:26;10.75;;;2.42;;
45065;SDS011;30830;53.704;10.004;2023-03-26T11:53:56;13.67;;;2.57;;
45065;SDS011;30830;53.704;10.004;2023-03-26T11:58:58;11.35;;;2.30;;
45065;SDS011;30830;53.704;10.004;2023-03-26T12:01:35;9.30;;;3.08;;
45065;SDS011;30830;53.704;10.004;2023-03-26T12:04:14;14.32;;;2.70;;
45065;SDS011;30830;53.704;10.004;2023-03-26T12:06:49;7.55;;;2.17;;
45065;SDS011;30830;53.704;10.004;2023-03-26T12:09:23;10.55;;;2.35;;
45065;SDS011;30830;53.704;10.004;2023-03-26T12:11:51;6.20;;;2.38;;
45065;SDS011;30830;53.704;10.004;2023-03-26T12:14:21;8.32;;;2.72;;
45065;SDS011;30830;53.704;10.004;2023-03-26T12:19:58;7.55;;;2.30;;
45065;SDS011;30830;53.704;10.004;2023-03-26T12:22:37;10.52;;;2.15;;
45065;SDS011;30830;53.704;10.004;2023-03-26T12:25:15;10.45;;;3.38;;
45065;SDS011;30830;53.704;10.004;2023-03-26T12:27:49;7.95;;;2.33;;
45065;SDS011;30830;53.704;10.004;2023-03-26T12:30:37;10.30;;;2.95;;
45065;SDS011;30830;53.704;10.004;2023-03-26T12:33:18;11.02;;;2.15;;
45065;SDS011;30830;53.704;10.004;2023-03-26T12:35:50;5.80;;;2.22;;
45065;SDS011;30830;53.704;10.004;2023-03-26T12:43:50;7.25;;;1.70;;
45065;SDS011;30830;53.704;10.004;2023-03-26T12:46:26;10.35;;;2.65;;
45065;SDS011;30830;53.704;10.004;2023-03-26T12:48:56;7.68;;;2.00;;
45065;SDS011;30830;53.704;10.004;2023-03-26T12:57:22;8.82;;;1.98;;
45065;SDS011;30830;53.704;10.004;2023-03-26T13:22:14;15.85;;;3.75;;
45065;SDS011;30830;53.704;10.004;2023-03-26T13:27:36;9.40;;;2.22;;
45065;SDS011;30830;53.704;10.004;2023-03-26T13:30:13;11.70;;;2.35;;
45065;SDS011;30830;53.704;10.004;2023-03-26T13:33:06;13.50;;;2.70;;
45065;SDS011;30830;53.704;10.004;2023-03-26T13:35:51;10.27;;;2.25;;
45065;SDS011;30830;53.704;10.004;2023-03-26T13:46:37;6.22;;;2.53;;
45065;SDS011;30830;53.704;10.004;2023-03-26T13:51:37;8.05;;;2.78;;
45065;SDS011;30830;53.704;10.004;2023-03-26T13:54:26;10.43;;;2.03;;
45065;SDS011;30830;53.704;10.004;2023-03-26T13:56:58;6.55;;;2.17;;
45065;SDS011;30830;53.704;10.004;2023-03-26T14:02:39;11.38;;;2.03;;
45065;SDS011;30830;53.704;10.004;2023-03-26T14:05:08;8.82;;;1.83;;
45065;SDS011;30830;53.704;10.004;2023-03-26T14:07:42;7.15;;;2.92;;
45065;SDS011;30830;53.704;10.004;2023-03-26T14:10:14;11.55;;;3.05;;
45065;SDS011;30830;53.704;10.004;2023-03-26T14:15:40;7.83;;;2.17;;
45065;SDS011;30830;53.704;10.004;2023-03-26T14:26:53;7.35;;;2.00;;
45065;SDS011;30830;53.704;10.004;2023-03-26T14:32:00;11.63;;;3.05;;
45065;SDS011;30830;53.704;10.004;2023-03-26T14:34:43;9.63;;;3.17;;
45065;SDS011;30830;53.704;10.004;2023-03-26T14:37:22;6.18;;;2.40;;
45065;SDS011;30830;53.704;10.004;2023-03-26T14:50:46;7.03;;;1.83;;
45065;SDS011;30830;53.704;10.004;2023-03-26T14:53:48;5.80;;;1.80;;
45065;SDS011;30830;53.704;10.004;2023-03-26T15:41:11;5.13;;;1.50;;
45065;SDS011;30830;53.704;10.004;2023-03-26T15:57:15;6.90;;;1.55;;
45065;SDS011;30830;53.704;10.004;2023-03-26T16:03:07;3.50;;;1.67;;
45065;SDS011;30830;53.704;10.004;2023-03-26T16:11:41;8.48;;;2.30;;
45065;SDS011;30830;53.704;10.004;2023-03-26T16:17:13;7.82;;;1.88;;
45065;SDS011;30830;53.704;10.004;2023-03-26T16:19:49;6.45;;;1.73;;
45065;SDS011;30830;53.704;10.004;2023-03-26T16:28:07;7.20;;;1.85;;
45065;SDS011;30830;53.704;10.004;2023-03-26T16:30:34;6.88;;;2.00;;
45065;SDS011;30830;53.704;10.004;2023-03-26T16:33:14;9.65;;;2.13;;
45065;SDS011;30830;53.704;10.004;2023-03-26T16:36:02;5.25;;;1.85;;
45065;SDS011;30830;53.704;10.004;2023-03-26T16:38:44;7.88;;;1.80;;
45065;SDS011;30830;53.704;10.004;2023-03-26T16:41:15;3.83;;;1.45;;
45065;SDS011;30830;53.704;10.004;2023-03-26T16:43:50;10.20;;;2.03;;
45065;SDS011;30830;53.704;10.004;2023-03-26T16:49:29;5.40;;;1.50;;
45065;SDS011;30830;53.704;10.004;2023-03-26T17:08:57;5.00;;;1.70;;
45065;SDS011;30830;53.704;10.004;2023-03-26T17:11:32;8.30;;;1.70;;
45065;SDS011;30830;53.704;10.004;2023-03-26T17:14:23;4.38;;;1.02;;
45065;SDS011;30830;53.704;10.004;2023-03-26T17:25:10;3.75;;;0.95;;
45065;SDS011;30830;53.704;10.004;2023-03-26T17:33:47;4.93;;;1.08;;
45065;SDS011;30830;53.704;10.004;2023-03-26T17:45:15;2.45;;;1.10;;
45065;SDS011;30830;53.704;10.004;2023-03-26T17:48:30;3.58;;;1.00;;
45065;SDS011;30830;53.704;10.004;2023-03-26T17:50:44;2.35;;;0.82;;
45065;SDS011;30830;53.704;10.004;2023-03-26T17:53:16;7.68;;;1.48;;
45065;SDS011;30830;53.704;10.004;2023-03-26T17:55:47;2.13;;;1.23;;
45065;SDS011;30830;53.704;10.004;2023-03-26T18:03:35;1.58;;;1.25;;
45065;SDS011;30830;53.704;10.004;2023-03-26T18:06:09;3.63;;;1.60;;
45065;SDS011;30830;53.704;10.004;2023-03-26T18:16:51;3.72;;;1.35;;
45065;SDS011;30830;53.704;10.004;2023-03-26T18:19:20;6.20;;;1.65;;
45065;SDS011;30830;53.704;10.004;2023-03-26T18:21:51;4.38;;;1.40;;
45065;SDS011;30830;53.704;10.004;2023-03-26T18:24:37;4.40;;;1.65;;
45065;SDS011;30830;53.704;10.004;2023-03-26T18:29:34;2.00;;;1.20;;
45065;SDS011;30830;53.704;10.004;2023-03-26T18:34:33;3.33;;;1.55;;
45065;SDS011;30830;53.704;10.004;2023-03-26T18:37:08;4.10;;;1.58;;
45065;SDS011;30830;53.704;10.004;2023-03-26T18:39:39;3.97;;;1.40;;
45065;SDS011;30830;53.704;10.004;2023-03-26T18:42:23;5.57;;;1.00;;
45065;SDS011;30830;53.704;10.004;2023-03-26T18:44:51;5.00;;;1.25;;
45065;SDS011;30830;53.704;10.004;2023-03-26T18:47:17;0.95;;;0.70;;
45065;SDS011;30830;53.704;10.004;2023-03-26T18:49:44;1.08;;;0.80;;
45065;SDS011;30830;53.704;10.004;2023-03-26T18:52:14;5.05;;;0.93;;
45065;SDS011;30830;53.704;10.004;2023-03-26T18:54:42;2.75;;;1.00;;
45065;SDS011;30830;53.704;10.004;2023-03-26T18:57:24;5.30;;;1.20;;
45065;SDS011;30830;53.704;10.004;2023-03-26T18:59:52;3.35;;;0.63;;
45065;SDS011;30830;53.704;10.004;2023-03-26T19:02:20;0.85;;;0.60;;
45065;SDS011;30830;53.704;10.004;2023-03-26T19:04:47;1.70;;;0.70;;
45065;SDS011;30830;53.704;10.004;2023-03-26T19:07:15;2.75;;;0.70;;
45065;SDS011;30830;53.704;10.004;2023-03-26T19:09:46;2.38;;;0.90;;
45065;SDS011;30830;53.704;10.004;2023-03-26T19:12:20;1.02;;;0.40;;
45065;SDS011;30830;53.704;10.004;2023-03-26T19:14:52;1.30;;;0.70;;
45065;SDS011;30830;53.704;10.004;2023-03-26T19:17:23;1.77;;;0.85;;
45065;SDS011;30830;53.704;10.004;2023-03-26T19:19:54;2.35;;;0.80;;
45065;SDS011;30830;53.704;10.004;2023-03-26T19:22:21;2.03;;;0.73;;
45065;SDS011;30830;53.704;10.004;2023-03-26T19:24:48;3.22;;;0.70;;
45065;SDS011;30830;53.704;10.004;2023-03-26T19:27:20;0.90;;;0.40;;
45065;SDS011;30830;53.704;10.004;2023-03-26T19:29:45;4.00;;;1.10;;
45065;SDS011;30830;53.704;10.004;2023-03-26T19:32:19;2.88;;;0.63;;
45065;SDS011;30830;53.704;10.004;2023-03-26T19:34:52;1.35;;;0.70;;
45065;SDS011;30830;53.704;10.004;2023-03-26T19:37:21;3.13;;;0.73;;
45065;SDS011;30830;53.704;10.004;2023-03-26T19:39:50;0.75;;;0.40;;
45065;SDS011;30830;53.704;10.004;2023-03-26T19:42:18;2.20;;;0.98;;
45065;SDS011;30830;53.704;10.004;2023-03-26T19:44:45;0.98;;;0.52;;
45065;SDS011;30830;53.704;10.004;2023-03-26T19:47:18;1.02;;;0.57;;
45065;SDS011;30830;53.704;10.004;2023-03-26T19:49:53;1.50;;;0.50;;
45065;SDS011;30830;53.704;10.004;2023-03-26T19:57:27;1.75;;;0.70;;
45065;SDS011;30830;53.704;10.004;2023-03-26T19:59:55;2.38;;;0.85;;
45065;SDS011;30830;53.704;10.004;2023-03-26T20:02:22;1.95;;;0.40;;
45065;SDS011;30830;53.704;10.004;2023-03-26T20:04:48;1.63;;;0.75;;
45065;SDS011;30830;53.704;10.004;2023-03-26T20:07:20;1.23;;;1.10;;
45065;SDS011;30830;53.704;10.004;2023-03-26T20:09:52;1.60;;;0.68;;
45065;SDS011;30830;53.704;10.004;2023-03-26T20:12:18;0.65;;;0.55;;
45065;SDS011;30830;53.704;10.004;2023-03-26T20:14:44;1.33;;;0.47;;
45065;SDS011;30830;53.704;10.004;2023-03-26T20:17:14;1.77;;;0.60;;
45065;SDS011;30830;53.704;10.004;2023-03-26T20:19:42;3.63;;;1.17;;
45065;SDS011;30830;53.704;10.004;2023-03-26T20:22:14;1.85;;;0.70;;
45065;SDS011;30830;53.704;10.004;2023-03-26T20:24:44;1.73;;;0.60;;
45065;SDS011;30830;53.704;10.004;2023-03-26T20:27:10;1.25;;;0.60;;
45065;SDS011;30830;53.704;10.004;2023-03-26T20:29:38;1.83;;;0.93;;
45065;SDS011;30830;53.704;10.004;2023-03-26T20:32:05;2.72;;;0.70;;
45065;SDS011;30830;53.704;10.004;2023-03-26T20:34:47;1.13;;;0.82;;
45065;SDS011;30830;53.704;10.004;2023-03-26T20:37:13;0.93;;;0.70;;
45065;SDS011;30830;53.704;10.004;2023-03-26T20:39:42;4.28;;;1.00;;
45065;SDS011;30830;53.704;10.004;2023-03-26T20:42:09;4.68;;;1.10;;
45065;SDS011;30830;53.704;10.004;2023-03-26T20:44:35;3.42;;;0.93;;
45065;SDS011;30830;53.704;10.004;2023-03-26T20:47:01;4.80;;;0.90;;
45065;SDS011;30830;53.704;10.004;2023-03-26T20:49:27;1.95;;;0.70;;
45065;SDS011;30830;53.704;10.004;2023-03-26T20:51:53;3.05;;;0.73;;
45065;SDS011;30830;53.704;10.004;2023-03-26T20:54:22;3.80;;;0.77;;
45065;SDS011;30830;53.704;10.004;2023-03-26T20:56:49;1.90;;;0.88;;
45065;SDS011;30830;53.704;10.004;2023-03-26T20:59:17;3.45;;;1.30;;
45065;SDS011;30830;53.704;10.004;2023-03-26T21:01:45;1.48;;;0.77;;
45065;SDS011;30830;53.704;10.004;2023-03-26T21:04:13;2.78;;;1.02;;
45065;SDS011;30830;53.704;10.004;2023-03-26T21:06:40;2.40;;;1.17;;
45065;SDS011;30830;53.704;10.004;2023-03-26T21:09:06;2.15;;;0.80;;
45065;SDS011;30830;53.704;10.004;2023-03-26T21:11:38;1.30;;;0.60;;
45065;SDS011;30830;53.704;10.004;2023-03-26T21:14:16;3.08;;;0.75;;
45065;SDS011;30830;53.704;10.004;2023-03-26T21:16:51;3.38;;;0.98;;
45065;SDS011;30830;53.704;10.004;2023-03-26T21:19:17;3.45;;;1.27;;